createdAt,value
2023-04-20T00:01:12.508Z,8.18
2023-04-20T00:03:39.369Z,8.32
2023-04-20T00:06:06.116Z,6.68
2023-04-20T00:08:32.824Z,6.00
2023-04-20T00:10:59.469Z,8.02
2023-04-20T00:13:26.563Z,7.40
2023-04-20T00:15:53.162Z,6.90
2023-04-20T00:18:19.673Z,6.82
2023-04-20T00:20:46.310Z,6.22
2023-04-20T00:23:12.931Z,7.10
2023-04-20T00:25:39.833Z,6.22
2023-04-20T00:28:06.343Z,6.75
2023-04-20T00:30:32.994Z,5.43
2023-04-20T00:32:59.604Z,5.75
2023-04-20T00:35:26.266Z,6.82
2023-04-20T00:37:52.819Z,5.97
2023-04-20T00:40:19.454Z,6.55
2023-04-20T00:42:46.005Z,6.68
2023-04-20T00:45:12.590Z,8.65
2023-04-20T00:47:39.120Z,7.07
2023-04-20T00:50:07.329Z,7.78
2023-04-20T00:52:34.202Z,6.85
2023-04-20T00:55:01.016Z,7.78
2023-04-20T00:57:28.398Z,6.90
2023-04-20T00:59:54.959Z,8.68
2023-04-20T01:02:21.557Z,8.80
2023-04-20T01:04:48.286Z,8.77
2023-04-20T01:07:14.869Z,8.50
2023-04-20T01:09:41.630Z,9.80
2023-04-20T01:12:09.777Z,10.18
2023-04-20T01:14:36.535Z,10.55
2023-04-20T01:17:06.137Z,10.45
2023-04-20T01:19:33.491Z,10.55
2023-04-20T01:22:00.135Z,12.18
2023-04-20T01:24:27.684Z,11.27
2023-04-20T01:26:54.296Z,10.55
2023-04-20T01:29:20.933Z,11.15
2023-04-20T01:31:47.837Z,10.50
2023-04-20T01:34:15.262Z,10.93
2023-04-20T01:36:41.847Z,12.88
2023-04-20T01:39:08.782Z,11.98
2023-04-20T01:41:35.536Z,12.35
2023-04-20T01:44:02.034Z,12.00
2023-04-20T01:46:28.618Z,12.07
2023-04-20T01:48:55.230Z,14.35
2023-04-20T01:51:22.268Z,13.50
2023-04-20T01:53:48.841Z,13.35
2023-04-20T01:56:15.567Z,13.95
2023-04-20T01:58:42.068Z,11.98
2023-04-20T02:01:08.671Z,15.52
2023-04-20T02:03:35.523Z,12.10
2023-04-20T02:06:02.163Z,12.48
2023-04-20T02:08:28.755Z,11.43
2023-04-20T02:10:55.275Z,13.40
2023-04-20T02:13:21.950Z,11.00
2023-04-20T02:15:48.471Z,10.40
2023-04-20T02:18:16.644Z,11.10
2023-04-20T02:20:44.329Z,10.93
2023-04-20T02:23:11.086Z,11.48
2023-04-20T02:25:37.932Z,12.10
2023-04-20T02:28:05.156Z,12.75
2023-04-20T02:30:31.772Z,12.32
2023-04-20T02:32:58.927Z,11.27
2023-04-20T02:35:26.171Z,10.98
2023-04-20T02:37:52.734Z,11.32
2023-04-20T02:40:19.361Z,11.80
2023-04-20T02:42:45.952Z,12.93
2023-04-20T02:45:12.667Z,11.55
2023-04-20T02:47:39.290Z,13.50
2023-04-20T02:50:06.662Z,12.63
2023-04-20T02:52:33.235Z,14.20
2023-04-20T02:54:59.817Z,15.43
2023-04-20T02:57:26.579Z,16.15
2023-04-20T02:59:53.179Z,16.55
2023-04-20T03:02:19.778Z,15.77
2023-04-20T03:04:46.489Z,17.00
2023-04-20T03:07:15.277Z,18.83
2023-04-20T03:09:43.053Z,15.70
2023-04-20T03:12:09.591Z,14.70
2023-04-20T03:14:36.514Z,17.75
2023-04-20T03:17:03.087Z,15.07
2023-04-20T03:19:29.658Z,15.85
2023-04-20T03:21:56.250Z,13.20
2023-04-20T03:24:23.958Z,13.40
2023-04-20T03:26:50.799Z,14.65
2023-04-20T03:29:17.575Z,13.57
2023-04-20T03:31:44.467Z,13.90
2023-04-20T03:34:11.028Z,13.20
2023-04-20T03:36:37.812Z,13.30
2023-04-20T03:39:04.579Z,15.75
2023-04-20T03:41:31.871Z,16.55
2023-04-20T03:43:58.527Z,14.40
2023-04-20T03:46:25.266Z,16.55
2023-04-20T03:48:51.913Z,19.00
2023-04-20T03:51:18.441Z,18.90
2023-04-20T03:53:44.973Z,18.08
2023-04-20T03:56:11.530Z,22.00
2023-04-20T03:58:38.170Z,18.55
2023-04-20T04:01:09.460Z,17.98
2023-04-20T04:03:36.703Z,20.40
2023-04-20T04:06:03.827Z,20.40
2023-04-20T04:08:32.155Z,22.20
2023-04-20T04:10:59.526Z,18.25
2023-04-20T04:13:26.346Z,20.92
2023-04-20T04:15:52.876Z,24.20
2023-04-20T04:18:20.978Z,18.85
2023-04-20T04:20:47.726Z,22.40
2023-04-20T04:23:14.322Z,21.10
2023-04-20T04:25:40.885Z,24.00
2023-04-20T04:28:07.492Z,23.60
2023-04-20T04:30:35.253Z,25.67
2023-04-20T04:33:04.996Z,31.73
2023-04-20T04:35:33.337Z,23.13
2023-04-20T04:37:59.951Z,25.15
2023-04-20T04:40:26.499Z,27.30
2023-04-20T04:42:53.083Z,26.73
2023-04-20T04:45:19.787Z,23.52
2023-04-20T04:47:46.448Z,25.10
2023-04-20T04:50:13.211Z,28.17
2023-04-20T04:52:39.744Z,28.38
2023-04-20T04:55:09.192Z,28.98
2023-04-20T04:57:36.281Z,25.33
2023-04-20T05:00:04.462Z,28.08
2023-04-20T05:02:31.252Z,26.25
2023-04-20T05:04:58.110Z,30.13
2023-04-20T05:07:24.823Z,25.17
2023-04-20T05:09:51.594Z,28.95
2023-04-20T05:12:19.259Z,30.15
2023-04-20T05:14:45.853Z,26.77
2023-04-20T05:17:12.384Z,25.00
2023-04-20T05:19:38.911Z,24.58
2023-04-20T05:22:05.442Z,28.02
2023-04-20T05:24:31.967Z,25.88
2023-04-20T05:26:58.619Z,25.80
2023-04-20T05:29:25.170Z,27.23
2023-04-20T05:31:51.729Z,25.25
2023-04-20T05:34:18.392Z,24.85
2023-04-20T05:36:44.960Z,25.02
2023-04-20T05:39:11.655Z,29.77
2023-04-20T05:41:38.907Z,24.33
2023-04-20T05:44:05.662Z,23.13
2023-04-20T05:46:32.198Z,27.67
2023-04-20T05:48:58.719Z,28.75
2023-04-20T05:51:29.008Z,25.13
2023-04-20T05:53:55.635Z,18.33
2023-04-20T05:56:22.225Z,16.52
2023-04-20T05:58:48.959Z,19.90
2023-04-20T06:01:15.613Z,22.05
2023-04-20T06:03:42.560Z,19.92
2023-04-20T06:06:09.305Z,23.60
2023-04-20T06:08:35.878Z,24.83
2023-04-20T06:11:02.580Z,22.98
2023-04-20T06:13:31.621Z,20.98
2023-04-20T06:15:58.413Z,19.00
2023-04-20T06:18:24.951Z,22.00
2023-04-20T06:20:51.462Z,25.88
2023-04-20T06:23:18.032Z,24.02
2023-04-20T06:25:44.631Z,24.63
2023-04-20T06:28:11.334Z,23.73
2023-04-20T06:30:37.867Z,27.75
2023-04-20T06:33:04.442Z,24.50
2023-04-20T06:35:31.121Z,27.10
2023-04-20T06:37:57.887Z,26.23
2023-04-20T06:40:28.129Z,23.55
2023-04-20T06:42:54.684Z,21.63
2023-04-20T06:45:21.292Z,27.95
2023-04-20T06:47:48.138Z,24.73
2023-04-20T06:50:15.025Z,26.10
2023-04-20T06:52:42.017Z,24.52
2023-04-20T06:55:09.204Z,27.10
2023-04-20T06:57:37.325Z,22.33
2023-04-20T07:00:06.145Z,24.15
2023-04-20T07:02:42.844Z,28.45
2023-04-20T07:05:09.631Z,27.45
2023-04-20T07:07:36.250Z,23.85
2023-04-20T07:10:02.770Z,29.60
2023-04-20T07:12:29.472Z,27.73
2023-04-20T07:14:56.023Z,21.60
2023-04-20T07:17:22.703Z,22.73
2023-04-20T07:19:49.227Z,18.58
2023-04-20T07:22:15.736Z,19.15
2023-04-20T07:24:42.249Z,20.27
2023-04-20T07:27:08.903Z,19.75
2023-04-20T07:29:35.503Z,20.10
2023-04-20T07:32:02.078Z,19.42
2023-04-20T07:34:28.575Z,18.05
2023-04-20T07:36:55.061Z,16.60
2023-04-20T07:39:21.594Z,18.58
2023-04-20T07:41:48.096Z,18.23
2023-04-20T07:44:14.619Z,17.70
2023-04-20T07:46:41.820Z,17.20
2023-04-20T07:49:08.294Z,20.15
2023-04-20T07:51:35.261Z,18.65
2023-04-20T07:54:01.744Z,20.85
2023-04-20T07:56:28.218Z,24.27
2023-04-20T07:58:54.712Z,19.98
2023-04-20T08:01:28.051Z,23.70
2023-04-20T08:03:56.009Z,23.88
2023-04-20T08:06:22.745Z,22.30
2023-04-20T08:08:49.251Z,20.08
2023-04-20T08:11:15.965Z,22.40
2023-04-20T08:13:42.584Z,20.33
2023-04-20T08:16:09.385Z,21.45
2023-04-20T08:18:35.912Z,20.90
2023-04-20T08:21:02.386Z,21.25
2023-04-20T08:23:28.901Z,19.08
2023-04-20T08:25:55.484Z,18.17
2023-04-20T08:28:33.391Z,19.38
2023-04-20T08:31:00.845Z,19.30
2023-04-20T08:33:27.608Z,18.85
2023-04-20T08:35:54.219Z,22.80
2023-04-20T08:38:32.958Z,22.63
2023-04-20T08:41:00.272Z,20.67
2023-04-20T08:43:26.941Z,21.58
2023-04-20T08:45:58.892Z,20.30
2023-04-20T08:48:27.182Z,23.23
2023-04-20T08:50:54.717Z,19.08
2023-04-20T08:53:21.327Z,22.08
2023-04-20T08:55:49.856Z,19.23
2023-04-20T08:58:17.253Z,19.92
2023-04-20T09:00:50.132Z,20.30
2023-04-20T09:03:17.000Z,20.25
2023-04-20T09:05:44.632Z,19.55
2023-04-20T09:08:11.231Z,19.35
2023-04-20T09:10:43.524Z,19.98
2023-04-20T09:13:21.796Z,21.85
2023-04-20T09:15:48.348Z,21.08
2023-04-20T09:18:15.577Z,20.35
2023-04-20T09:20:42.253Z,21.25
2023-04-20T09:23:17.233Z,21.20
2023-04-20T09:25:46.224Z,21.02
2023-04-20T09:28:13.971Z,20.50
2023-04-20T09:30:45.990Z,24.45
2023-04-20T09:33:14.476Z,19.92
2023-04-20T09:35:43.003Z,23.20
2023-04-20T09:38:10.994Z,20.80
2023-04-20T09:40:37.814Z,20.15
2023-04-20T09:43:10.815Z,19.33
2023-04-20T09:45:39.189Z,19.80
2023-04-20T09:48:09.024Z,22.17
2023-04-20T09:50:49.162Z,21.02
2023-04-20T09:53:17.808Z,20.83
2023-04-20T09:55:54.228Z,20.90
2023-04-20T09:58:21.599Z,19.15
2023-04-20T10:00:49.028Z,22.60
2023-04-20T10:03:20.351Z,21.20
2023-04-20T10:05:47.290Z,19.70
2023-04-20T10:08:13.985Z,20.17
2023-04-20T10:10:50.621Z,20.33
2023-04-20T10:13:21.929Z,20.60
2023-04-20T10:15:48.733Z,22.67
2023-04-20T10:18:17.710Z,23.58
2023-04-20T10:20:45.187Z,21.02
2023-04-20T10:23:14.311Z,22.63
2023-04-20T10:25:41.574Z,22.13
2023-04-20T10:28:10.588Z,22.13
2023-04-20T10:30:49.529Z,22.70
2023-04-20T10:33:17.322Z,23.45
2023-04-20T10:35:48.368Z,21.95
2023-04-20T10:38:16.165Z,22.70
2023-04-20T10:40:42.898Z,21.77
2023-04-20T10:43:22.403Z,25.02
2023-04-20T10:45:50.343Z,27.17
2023-04-20T10:48:18.360Z,23.90
2023-04-20T10:50:45.398Z,22.92
2023-04-20T10:53:23.429Z,25.60
2023-04-20T10:56:00.066Z,24.60
2023-04-20T10:58:26.801Z,22.98
2023-04-20T11:01:05.850Z,22.95
2023-04-20T11:03:34.616Z,22.45
2023-04-20T11:06:02.759Z,21.20
2023-04-20T11:08:40.804Z,21.73
2023-04-20T11:11:22.035Z,22.13
2023-04-20T11:13:48.768Z,26.55
2023-04-20T11:16:17.005Z,26.48
2023-04-20T11:18:54.876Z,25.00
2023-04-20T11:21:22.409Z,24.98
2023-04-20T11:23:50.074Z,24.65
2023-04-20T11:26:17.119Z,23.23
2023-04-20T11:28:56.034Z,27.90
2023-04-20T11:31:23.293Z,28.95
2023-04-20T11:33:50.266Z,24.02
2023-04-20T11:36:21.999Z,23.65
2023-04-20T11:38:49.291Z,25.30
2023-04-20T11:41:17.018Z,25.55
2023-04-20T11:43:43.628Z,24.27
2023-04-20T11:46:17.889Z,24.33
2023-04-20T11:48:45.512Z,23.45
2023-04-20T11:51:12.202Z,24.27
2023-04-20T11:53:39.058Z,25.38
2023-04-20T11:56:06.333Z,22.05
2023-04-20T11:58:32.996Z,22.27
2023-04-20T12:01:00.258Z,23.00
2023-04-20T12:03:27.368Z,23.23
2023-04-20T12:05:54.096Z,21.10
2023-04-20T12:08:20.861Z,23.08
2023-04-20T12:10:47.453Z,23.98
2023-04-20T12:13:14.999Z,23.55
2023-04-20T12:15:41.622Z,24.77
2023-04-20T12:18:08.412Z,26.15
2023-04-20T12:20:35.156Z,27.75
2023-04-20T12:23:02.388Z,22.75
2023-04-20T12:25:28.938Z,29.05
2023-04-20T12:27:55.594Z,27.17
2023-04-20T12:30:22.140Z,26.67
2023-04-20T12:32:48.730Z,24.38
2023-04-20T12:35:15.742Z,26.70
2023-04-20T12:37:42.369Z,24.58
2023-04-20T12:40:09.253Z,28.98
2023-04-20T12:42:35.942Z,30.23
2023-04-20T12:45:02.495Z,28.00
2023-04-20T12:47:29.052Z,28.65
2023-04-20T12:49:56.231Z,24.25
2023-04-20T12:52:22.858Z,26.35
2023-04-20T12:54:49.970Z,25.52
2023-04-20T12:57:17.020Z,26.55
2023-04-20T12:59:43.540Z,26.67
2023-04-20T13:02:10.818Z,24.75
2023-04-20T13:04:37.499Z,24.98
2023-04-20T13:07:04.113Z,24.90
2023-04-20T13:09:30.707Z,25.77
2023-04-20T13:11:57.966Z,22.08
2023-04-20T13:14:25.313Z,24.33
2023-04-20T13:16:54.987Z,27.05
2023-04-20T13:19:22.088Z,22.27
2023-04-20T13:21:48.632Z,23.48
2023-04-20T13:24:15.476Z,24.45
2023-04-20T13:26:42.199Z,27.42
2023-04-20T13:29:08.925Z,23.00
2023-04-20T13:31:36.919Z,23.67
2023-04-20T13:34:03.629Z,22.15
2023-04-20T13:36:30.296Z,23.70
2023-04-20T13:38:56.951Z,21.88
2023-04-20T13:41:26.509Z,30.00
2023-04-20T13:43:53.081Z,26.80
2023-04-20T13:46:20.857Z,23.77
2023-04-20T13:48:47.481Z,25.38
2023-04-20T13:51:14.118Z,28.90
2023-04-20T13:53:40.992Z,25.45
2023-04-20T13:56:08.092Z,25.52
2023-04-20T13:58:34.802Z,23.70
2023-04-20T14:01:01.330Z,21.70
2023-04-20T14:03:28.119Z,20.25
2023-04-20T14:05:54.868Z,21.15
2023-04-20T14:08:23.329Z,20.13
2023-04-20T14:10:49.959Z,21.10
2023-04-20T14:13:16.566Z,18.25
2023-04-20T14:15:43.326Z,22.98
2023-04-20T14:18:09.942Z,20.67
2023-04-20T14:20:36.528Z,17.63
2023-04-20T14:23:03.069Z,18.70
2023-04-20T14:25:29.628Z,18.38
2023-04-20T14:27:56.206Z,17.40
2023-04-20T14:30:22.878Z,17.45
2023-04-20T14:32:56.934Z,20.10
2023-04-20T14:35:25.221Z,19.20
2023-04-20T14:37:52.358Z,18.33
2023-04-20T14:40:19.987Z,18.17
2023-04-20T14:42:47.103Z,18.80
2023-04-20T14:45:14.260Z,23.85
2023-04-20T14:47:44.112Z,17.67
2023-04-20T14:50:11.148Z,16.58
2023-04-20T14:52:37.750Z,18.25
2023-04-20T14:55:04.630Z,16.85
2023-04-20T14:57:31.636Z,16.15
2023-04-20T14:59:58.244Z,21.83
2023-04-20T15:02:25.156Z,20.67
2023-04-20T15:04:52.121Z,18.52
2023-04-20T15:07:19.243Z,17.98
2023-04-20T15:09:46.469Z,18.98
2023-04-20T15:12:13.094Z,18.58
2023-04-20T15:14:39.702Z,17.42
2023-04-20T15:17:06.382Z,17.42
2023-04-20T15:19:32.997Z,16.90
2023-04-20T15:21:59.572Z,17.55
2023-04-20T15:24:27.261Z,20.52
2023-04-20T15:26:53.854Z,19.50
2023-04-20T15:29:20.646Z,20.13
2023-04-20T15:31:47.240Z,21.98
2023-04-20T15:34:15.439Z,18.65
2023-04-20T15:36:42.906Z,18.80
2023-04-20T15:39:09.485Z,19.40
2023-04-20T15:41:36.241Z,21.48
2023-04-20T15:44:02.786Z,18.95
2023-04-20T15:46:29.334Z,24.80
2023-04-20T15:48:55.988Z,17.40
2023-04-20T15:51:24.603Z,19.67
2023-04-20T15:53:51.658Z,16.50
2023-04-20T15:56:22.666Z,18.73
2023-04-20T15:58:50.581Z,18.23
2023-04-20T16:01:20.755Z,23.63
2023-04-20T16:03:47.728Z,17.73
2023-04-20T16:06:14.645Z,19.27
2023-04-20T16:08:41.676Z,17.55
2023-04-20T16:11:08.994Z,20.17
2023-04-20T16:13:36.900Z,22.13
2023-04-20T16:16:03.756Z,19.23
2023-04-20T16:18:32.215Z,23.30
2023-04-20T16:20:59.239Z,22.13
2023-04-20T16:23:26.188Z,20.27
2023-04-20T16:25:52.792Z,21.83
2023-04-20T16:28:19.479Z,18.90
2023-04-20T16:30:46.061Z,20.85
2023-04-20T16:33:13.624Z,20.05
2023-04-20T16:35:40.902Z,20.42
2023-04-20T16:38:09.738Z,19.58
2023-04-20T16:40:37.154Z,21.70
2023-04-20T16:43:03.926Z,19.33
2023-04-20T16:45:30.655Z,19.80
2023-04-20T16:47:58.118Z,21.23
2023-04-20T16:50:24.840Z,20.52
2023-04-20T16:52:51.396Z,21.98
2023-04-20T16:55:18.067Z,23.48
2023-04-20T16:57:44.696Z,23.73
2023-04-20T17:00:12.957Z,22.15
2023-04-20T17:02:40.091Z,22.65
2023-04-20T17:05:08.459Z,19.92
2023-04-20T17:07:36.414Z,20.80
2023-04-20T17:10:03.592Z,21.88
2023-04-20T17:12:30.300Z,23.15
2023-04-20T17:14:57.044Z,23.00
2023-04-20T17:17:23.675Z,22.92
2023-04-20T17:19:50.270Z,19.40
2023-04-20T17:22:16.821Z,20.20
2023-04-20T17:24:49.282Z,20.48
2023-04-20T17:27:19.073Z,18.33
2023-04-20T17:29:46.089Z,25.45
2023-04-20T17:32:12.747Z,24.30
2023-04-20T17:34:48.121Z,18.25
2023-04-20T17:39:44.510Z,22.27
2023-04-20T17:44:39.055Z,19.42
2023-04-20T17:47:06.910Z,19.08
2023-04-20T17:49:34.905Z,20.20
2023-04-20T17:52:01.608Z,19.35
2023-04-20T17:54:30.694Z,22.15
2023-04-20T17:56:58.164Z,23.17
2023-04-20T17:59:24.825Z,20.48
2023-04-20T18:01:51.511Z,30.05
2023-04-20T18:04:18.495Z,31.98
2023-04-20T18:06:48.499Z,25.65
2023-04-20T18:09:15.189Z,22.50
2023-04-20T18:11:41.979Z,24.50
2023-04-20T18:14:08.627Z,24.67
2023-04-20T18:16:35.451Z,25.13
2023-04-20T18:19:02.006Z,22.23
2023-04-20T18:21:29.643Z,26.00
2023-04-20T18:23:56.518Z,24.88
2023-04-20T18:26:23.872Z,35.58
2023-04-20T18:28:50.436Z,27.60
2023-04-20T18:31:17.006Z,27.27
2023-04-20T18:33:43.574Z,28.48
2023-04-20T18:36:10.284Z,28.17
2023-04-20T18:38:36.818Z,29.98
2023-04-20T18:41:03.476Z,26.55
2023-04-20T18:43:29.998Z,27.73
2023-04-20T18:45:56.545Z,27.25
2023-04-20T18:48:23.080Z,27.05
2023-04-20T18:50:49.718Z,26.08
2023-04-20T18:53:16.508Z,24.67
2023-04-20T18:55:43.135Z,28.02
2023-04-20T18:58:09.693Z,29.13
2023-04-20T19:00:36.324Z,31.92
2023-04-20T19:03:03.127Z,29.50
2023-04-20T19:05:30.836Z,27.35
2023-04-20T19:07:57.455Z,26.58
2023-04-20T19:10:25.654Z,27.63
2023-04-20T19:12:52.167Z,30.35
2023-04-20T19:15:25.385Z,31.38
2023-04-20T19:17:54.848Z,31.90
2023-04-20T19:20:25.007Z,29.52
2023-04-20T19:22:51.889Z,31.13
2023-04-20T19:25:19.967Z,26.25
2023-04-20T19:27:46.789Z,29.60
2023-04-20T19:30:13.500Z,27.08
2023-04-20T19:32:40.289Z,29.80
2023-04-20T19:35:07.005Z,27.80
2023-04-20T19:37:33.570Z,27.85
2023-04-20T19:40:00.315Z,30.20
2023-04-20T19:42:26.820Z,31.90
2023-04-20T19:44:53.642Z,29.05
2023-04-20T19:47:20.839Z,31.95
2023-04-20T19:49:48.280Z,37.08
2023-04-20T19:52:14.929Z,33.92
2023-04-20T19:54:41.858Z,34.83
2023-04-20T19:57:08.823Z,29.02
2023-04-20T19:59:37.501Z,32.10
2023-04-20T20:02:04.199Z,36.28
2023-04-20T20:04:31.738Z,37.92
2023-04-20T20:06:59.143Z,38.00
2023-04-20T20:09:26.119Z,31.73
2023-04-20T20:11:52.750Z,32.08
2023-04-20T20:14:19.555Z,38.30
2023-04-20T20:16:46.182Z,40.05
2023-04-20T20:19:12.722Z,30.35
2023-04-20T20:21:39.279Z,32.60
2023-04-20T20:24:05.986Z,33.60
2023-04-20T20:26:32.625Z,32.78
2023-04-20T20:28:59.117Z,34.33
2023-04-20T20:31:25.703Z,32.95
2023-04-20T20:33:52.377Z,39.50
2023-04-20T20:36:18.937Z,33.88
2023-04-20T20:38:45.935Z,29.20
2023-04-20T20:41:13.633Z,32.65
2023-04-20T20:43:43.174Z,30.92
2023-04-20T20:46:09.939Z,32.03
2023-04-20T20:48:36.587Z,35.65
2023-04-20T20:51:03.386Z,31.25
2023-04-20T20:53:29.894Z,33.08
2023-04-20T20:55:56.455Z,30.83
2023-04-20T20:58:22.986Z,34.10
2023-04-20T21:00:49.543Z,28.85
2023-04-20T21:03:16.423Z,34.72
2023-04-20T21:05:43.139Z,30.27
2023-04-20T21:08:10.077Z,30.60
2023-04-20T21:10:36.678Z,31.17
2023-04-20T21:13:04.149Z,32.75
2023-04-20T21:15:30.725Z,28.15
2023-04-20T21:17:57.347Z,29.38
2023-04-20T21:20:24.004Z,31.02
2023-04-20T21:22:50.660Z,30.48
2023-04-20T21:25:17.323Z,31.33
2023-04-20T21:27:43.902Z,32.22
2023-04-20T21:30:11.214Z,29.63
2023-04-20T21:32:38.009Z,29.80
2023-04-20T21:35:04.798Z,31.10
2023-04-20T21:37:31.390Z,31.10
2023-04-20T21:39:57.920Z,33.15
2023-04-20T21:42:24.484Z,31.58
2023-04-20T21:44:51.114Z,29.73
2023-04-20T21:47:17.692Z,32.63
2023-04-20T21:49:44.234Z,30.90
2023-04-20T21:52:10.953Z,32.38
2023-04-20T21:54:38.046Z,30.00
2023-04-20T21:57:04.658Z,32.47
2023-04-20T21:59:31.377Z,31.45
2023-04-20T22:01:58.100Z,30.73
2023-04-20T22:04:27.458Z,31.27
2023-04-20T22:11:49.986Z,27.92
2023-04-20T22:14:17.540Z,28.40
2023-04-20T22:16:44.062Z,30.02
2023-04-20T22:19:11.593Z,27.75
2023-04-20T22:21:38.353Z,32.17
2023-04-20T22:24:05.102Z,33.65
2023-04-20T22:26:31.658Z,32.75
2023-04-20T22:28:58.168Z,32.22
2023-04-20T22:31:24.783Z,28.42
2023-04-20T22:33:51.326Z,32.28
2023-04-20T22:36:18.452Z,29.23
2023-04-20T22:38:45.051Z,32.03
2023-04-20T22:41:11.629Z,32.40
2023-04-20T22:43:38.161Z,29.35
2023-04-20T22:46:04.725Z,28.17
2023-04-20T22:48:31.322Z,32.03
2023-04-20T22:51:00.748Z,30.95
2023-04-20T22:53:30.060Z,28.75
2023-04-20T22:56:06.996Z,31.17
2023-04-20T22:58:33.604Z,31.35
2023-04-20T23:01:00.430Z,31.83
2023-04-20T23:03:27.419Z,30.50
2023-04-20T23:05:54.252Z,28.88
2023-04-20T23:08:20.811Z,33.53
2023-04-20T23:10:47.378Z,31.70
2023-04-20T23:13:17.087Z,32.88
2023-04-20T23:15:43.674Z,30.80
2023-04-20T23:18:10.570Z,30.00
2023-04-20T23:20:38.494Z,27.92
2023-04-20T23:23:07.472Z,27.85
2023-04-20T23:25:34.304Z,28.05
2023-04-20T23:28:00.881Z,25.27
2023-04-20T23:30:27.449Z,27.77
2023-04-20T23:32:54.067Z,30.42
2023-04-20T23:35:20.636Z,26.27
2023-04-20T23:37:47.158Z,29.63
2023-04-20T23:40:13.788Z,29.55
2023-04-20T23:42:40.485Z,29.90
2023-04-20T23:45:07.694Z,30.30
2023-04-20T23:47:34.297Z,32.30
2023-04-20T23:50:00.797Z,31.02
2023-04-20T23:52:27.327Z,30.75
2023-04-20T23:54:54.410Z,27.75
2023-04-20T23:57:20.950Z,31.17
2023-04-20T23:59:47.501Z,28.05
